Ana Sayfa
METAR-TAF:

METAR-TAF

Havaalanları :

Ingalls Field

Hot Springs, Virginia, Amerika Birleşik Devletleri

Enlem: 37-57N, Boylam: 079-50W, yükseklik: 1156 m

Güncel hava durumu gözlemi

Rapor saat 21:35 UTC de 25 dakika önce yapıldı.
Rüzgar güneydan 4 kt
Sıcaklık 2°C
Nem 87%
Basınç 1013 hPa
Görüş mesafesi: 16.1 km
1400 ft yükseklikte parçalı bulutlu
5000 ft yükseklikte parçalı bulutlu
6500 ft yükseklikte çok bulutlu

METAR: KHSP 242135Z AUTO 17004KT 10SM SCT014 SCT050 OVC065 02/00 A2991 RMK AO2 T00241005

Saat: 17:00 (22:00 UTC)


TAF: eksik

4.000'den fazla havaalanı için hava durumu gözlemleri ve tahminleri (METAR ve TAF raporları).

Kullanılabilir istasyonlar harita üzerinde sarı ve kırmızı noktalarla gösterilir.

İstasyonun adını görmek için fareyi noktanın üzerinde gezdirin.

Sonrasında hava gözlem ve tahminlerini görmek için tıklayın.

Haritayı değiştirmek için: yaklaştırmak için siyah artı işaretli yeşil düğmeye ve uzaklaştırmak için de eksi işaretli düğmeye hızla tıklayın; bitişik haritalar için yeşil okları kullanın.


METAR-TAF: